Time;durP1;ratioP1;P1;durP2;ratioP2;P2;SDS_P1;SDS_P2;PMS_P1;PMS_P2;Temp;Humidity;BMP_temperature;BMP_pressure;BME280_temperature;BME280_humidity;BME280_pressure;Samples;Min_cycle;Max_cycle;Signal;HPM_P1;HPM_P2
2022/09/25 00:00:23;;;;;;;6.43;4.20;;;7.70;99.90;;;;;;5065845;23;20189;-69
2022/09/25 00:02:23;;;;;;;8.63;4.30;;;7.70;99.90;;;;;;5066301;23;20410;-70
2022/09/25 00:04:24;;;;;;;7.47;5.00;;;7.60;99.90;;;;;;5066357;23;20160;-71
2022/09/25 00:06:27;;;;;;;5.93;4.10;;;7.70;99.90;;;;;;5066333;23;20162;-71
2022/09/25 00:08:27;;;;;;;9.90;4.93;;;7.60;99.90;;;;;;5040385;23;20254;-71
2022/09/25 00:10:28;;;;;;;6.63;4.70;;;7.70;99.90;;;;;;5065763;23;20879;-71
2022/09/25 00:12:29;;;;;;;7.07;4.70;;;7.70;99.90;;;;;;5066719;23;20198;-70
2022/09/25 00:14:30;;;;;;;6.90;4.40;;;7.60;99.90;;;;;;5066610;23;20162;-70
2022/09/25 00:16:31;;;;;;;6.57;4.57;;;7.60;99.90;;;;;;5066825;23;20185;-70
2022/09/25 00:21:00;;;;;;;8.20;4.37;;;7.60;99.90;;;;;;5065858;23;20389;-71
2022/09/25 00:23:01;;;;;;;7.83;4.43;;;7.50;99.90;;;;;;5066628;23;20430;-71
2022/09/25 00:25:02;;;;;;;6.57;4.43;;;7.50;99.90;;;;;;5066259;23;20450;-71
2022/09/25 00:27:04;;;;;;;5.97;3.90;;;7.50;99.90;;;;;;5066570;23;20165;-71
2022/09/25 00:29:06;;;;;;;8.00;4.70;;;7.50;99.90;;;;;;5067305;23;20397;-73
2022/09/25 00:31:08;;;;;;;7.07;4.40;;;7.40;99.90;;;;;;5066826;23;20392;-71
2022/09/25 00:33:09;;;;;;;5.70;4.23;;;7.40;99.90;;;;;;5067696;23;20422;-70
2022/09/25 00:35:09;;;;;;;6.60;4.37;;;7.40;99.90;;;;;;5067790;23;20431;-70
2022/09/25 00:37:10;;;;;;;5.17;3.80;;;7.30;99.90;;;;;;5067472;23;20173;-70
2022/09/25 00:39:10;;;;;;;5.03;3.67;;;7.30;99.90;;;;;;5041711;23;20559;-70
2022/09/25 00:41:11;;;;;;;4.67;3.83;;;7.30;99.90;;;;;;5066639;23;20185;-70
2022/09/25 00:43:32;;;;;;;5.40;4.07;;;7.30;99.90;;;;;;5067665;23;20194;-69
2022/09/25 00:45:32;;;;;;;7.67;4.30;;;7.30;99.90;;;;;;5067797;23;20494;-69
2022/09/25 00:48:02;;;;;;;5.27;4.03;;;7.30;99.90;;;;;;5067701;23;20479;-70
2022/09/25 00:50:11;;;;;;;5.20;3.70;;;7.30;99.90;;;;;;5067780;23;20151;-69
2022/09/25 00:52:13;;;;;;;6.93;4.10;;;7.20;99.90;;;;;;5067624;23;20806;-70
2022/09/25 00:54:18;;;;;;;5.37;3.57;;;7.20;99.90;;;;;;5067432;23;20862;-70
2022/09/25 00:56:19;;;;;;;4.47;3.33;;;7.20;99.90;;;;;;5042142;23;20391;-71
2022/09/25 00:58:22;;;;;;;6.10;3.77;;;7.20;99.90;;;;;;5067332;23;20490;-70
2022/09/25 01:00:23;;;;;;;5.67;4.20;;;7.20;99.90;;;;;;5066893;23;20154;-70
2022/09/25 01:02:31;;;;;;;5.27;3.87;;;7.20;99.90;;;;;;5041515;23;20896;-71
2022/09/25 01:04:36;;;;;;;5.90;4.40;;;7.30;99.90;;;;;;5067678;23;20142;-70
2022/09/25 01:06:36;;;;;;;7.03;4.73;;;7.30;99.90;;;;;;5067588;23;20394;-71
2022/09/25 01:08:39;;;;;;;5.30;4.17;;;7.30;99.90;;;;;;5067466;23;20737;-70
2022/09/25 01:10:41;;;;;;;6.70;4.13;;;7.30;99.90;;;;;;5067129;23;20705;-69
2022/09/25 01:12:44;;;;;;;6.53;4.70;;;7.30;99.90;;;;;;5067660;23;20465;-70
2022/09/25 01:14:45;;;;;;;6.73;4.73;;;7.30;99.90;;;;;;5067344;23;20958;-70
2022/09/25 01:17:23;;;;;;;6.53;4.63;;;7.40;99.90;;;;;;5041521;23;20400;-71
2022/09/25 01:20:15;;;;;;;6.47;4.00;;;7.40;99.90;;;;;;5067281;23;20166;-72
2022/09/25 01:22:40;;;;;;;4.63;3.47;;;7.30;99.90;;;;;;5022433;23;20481;-71
2022/09/25 01:25:05;;;;;;;6.13;4.20;;;7.30;99.90;;;;;;5067424;23;20844;-70
2022/09/25 01:27:12;;;;;;;5.17;4.00;;;7.30;99.90;;;;;;5041380;23;20395;-71
2022/09/25 01:29:28;;;;;;;6.37;3.30;;;7.20;99.90;;;;;;5067623;23;20393;-71
2022/09/25 01:31:44;;;;;;;5.67;3.50;;;7.20;99.90;;;;;;5040614;23;20399;-70
2022/09/25 01:33:56;;;;;;;5.00;3.77;;;7.10;99.90;;;;;;5040970;23;20541;-71
2022/09/25 01:36:16;;;;;;;6.03;3.80;;;7.10;99.90;;;;;;5042979;23;20376;-70
2022/09/25 01:38:32;;;;;;;4.87;3.90;;;7.10;99.90;;;;;;5043198;23;20431;-70
2022/09/25 01:40:42;;;;;;;4.90;3.90;;;7.10;99.90;;;;;;5041729;23;20375;-71
2022/09/25 01:43:03;;;;;;;6.67;4.23;;;7.10;99.90;;;;;;5043553;23;20423;-70
2022/09/25 01:45:09;;;;;;;5.90;3.70;;;7.20;99.90;;;;;;5042857;23;20415;-71
2022/09/25 01:47:22;;;;;;;5.53;4.00;;;7.30;99.90;;;;;;5042926;23;20379;-70
2022/09/25 01:49:28;;;;;;;5.50;4.03;;;7.30;99.90;;;;;;5043016;23;20413;-70
2022/09/25 01:51:34;;;;;;;4.50;3.60;;;7.40;99.90;;;;;;5041975;23;20613;-71
2022/09/25 01:53:43;;;;;;;5.03;4.00;;;7.40;99.90;;;;;;5042770;23;20404;-71
2022/09/25 01:55:50;;;;;;;4.47;3.17;;;7.40;99.90;;;;;;5042772;23;20368;-70
2022/09/25 01:57:59;;;;;;;5.70;3.80;;;7.40;99.90;;;;;;5042784;23;20422;-70
2022/09/25 02:00:08;;;;;;;4.70;3.70;;;7.40;99.90;;;;;;5042602;23;20824;-70
2022/09/25 02:02:13;;;;;;;5.63;3.50;;;7.30;99.90;;;;;;5041887;23;20411;-70
2022/09/25 02:04:22;;;;;;;9.23;3.77;;;7.50;99.90;;;;;;5042703;23;20388;-70
2022/09/25 02:06:23;;;;;;;3.90;3.40;;;7.60;99.90;;;;;;5042951;23;20379;-70
2022/09/25 02:08:30;;;;;;;4.07;3.40;;;7.40;99.90;;;;;;5042700;23;20395;-70
2022/09/25 02:10:36;;;;;;;4.37;3.67;;;7.40;99.90;;;;;;5042152;23;20895;-70
2022/09/25 02:12:42;;;;;;;3.97;3.23;;;7.40;99.90;;;;;;5042874;23;20930;-72
2022/09/25 02:14:52;;;;;;;4.07;3.20;;;7.40;99.90;;;;;;5043208;23;20461;-71
2022/09/25 02:16:56;;;;;;;4.57;3.53;;;7.30;99.90;;;;;;5043180;23;20379;-70
2022/09/25 02:21:24;;;;;;;4.47;3.53;;;7.30;99.90;;;;;;5041921;23;20848;-71
2022/09/25 02:23:29;;;;;;;5.00;3.50;;;7.30;99.90;;;;;;5042956;23;20458;-70
2022/09/25 02:25:43;;;;;;;6.87;3.90;;;7.20;99.90;;;;;;5036127;23;20406;-71
2022/09/25 02:27:44;;;;;;;4.53;3.53;;;7.20;99.90;;;;;;5042730;23;20390;-72
2022/09/25 02:29:45;;;;;;;4.53;3.37;;;7.30;99.90;;;;;;5042658;23;20403;-71
2022/09/25 02:32:08;;;;;;;5.50;3.60;;;7.30;99.90;;;;;;5041773;23;20464;-72
2022/09/25 02:34:10;;;;;;;3.80;3.20;;;7.40;99.90;;;;;;5041010;23;20182;-71
2022/09/25 02:36:18;;;;;;;5.13;3.00;;;7.50;99.90;;;;;;5042857;23;20400;-71
2022/09/25 02:38:19;;;;;;;4.33;3.27;;;7.70;99.90;;;;;;5042662;23;20430;-70
2022/09/25 02:40:32;;;;;;;4.77;3.77;;;7.70;99.90;;;;;;5041596;23;20857;-71
2022/09/25 02:42:49;;;;;;;5.43;3.90;;;7.80;99.90;;;;;;5042239;23;20907;-70
2022/09/25 02:45:09;;;;;;;5.90;3.37;;;7.80;99.90;;;;;;5042955;23;20746;-71
2022/09/25 02:47:38;;;;;;;5.30;3.63;;;7.90;99.90;;;;;;5042730;23;20469;-71
2022/09/25 02:49:58;;;;;;;4.07;3.17;;;7.90;99.90;;;;;;5042556;23;20163;-71
2022/09/25 02:52:08;;;;;;;5.10;3.30;;;8.00;99.90;;;;;;5041462;23;20183;-71
2022/09/25 02:54:38;;;;;;;3.13;2.77;;;8.00;99.90;;;;;;5042741;23;20379;-71
2022/09/25 02:56:47;;;;;;;3.83;3.10;;;8.10;99.90;;;;;;5042185;23;20826;-71
2022/09/25 02:58:57;;;;;;;4.93;3.20;;;8.00;99.90;;;;;;5042480;23;20520;-72
2022/09/25 03:01:00;;;;;;;4.17;3.43;;;8.00;99.90;;;;;;5040465;23;20761;-70
2022/09/25 03:03:05;;;;;;;3.03;2.73;;;7.90;99.90;;;;;;5042595;23;20425;-70
2022/09/25 03:05:08;;;;;;;5.77;3.27;;;7.90;99.90;;;;;;5042918;23;20415;-71
2022/09/25 03:07:10;;;;;;;4.80;3.30;;;7.90;99.90;;;;;;5042236;23;20438;-71
2022/09/25 03:09:13;;;;;;;4.57;3.30;;;7.90;99.90;;;;;;5042592;23;20411;-71
2022/09/25 03:11:16;;;;;;;3.73;2.90;;;7.90;99.90;;;;;;5041748;23;20154;-71
2022/09/25 03:13:20;;;;;;;4.87;3.27;;;8.00;99.90;;;;;;5042872;23;20404;-71
2022/09/25 03:15:22;;;;;;;3.40;2.70;;;8.00;99.90;;;;;;5042561;23;20998;-71
2022/09/25 03:17:23;;;;;;;4.53;3.00;;;7.90;99.90;;;;;;5042344;23;20394;-72
2022/09/25 03:19:28;;;;;;;4.10;3.20;;;7.80;99.90;;;;;;5042657;23;20163;-71
2022/09/25 03:21:29;;;;;;;4.47;3.10;;;7.90;99.90;;;;;;5041605;23;20163;-72
2022/09/25 03:23:31;;;;;;;6.07;3.33;;;7.90;99.90;;;;;;5042615;23;20391;-71
2022/09/25 03:25:32;;;;;;;5.17;3.00;;;7.90;99.90;;;;;;5042489;23;20170;-71
2022/09/25 03:27:32;;;;;;;3.33;2.73;;;8.00;99.90;;;;;;5042567;23;20388;-71
2022/09/25 03:29:33;;;;;;;4.10;3.10;;;8.10;99.90;;;;;;5042544;23;20929;-72
2022/09/25 03:31:34;;;;;;;3.57;2.80;;;8.10;99.90;;;;;;5039862;23;20226;-72
2022/09/25 03:33:36;;;;;;;3.83;2.90;;;8.10;99.90;;;;;;5056330;23;20186;-71
2022/09/25 03:35:38;;;;;;;3.53;2.73;;;8.10;99.90;;;;;;5066758;23;20170;-71
2022/09/25 03:37:39;;;;;;;3.30;2.70;;;8.10;99.90;;;;;;5066453;23;20197;-70
2022/09/25 03:39:39;;;;;;;4.03;3.10;;;8.20;99.90;;;;;;5066574;23;20175;-71
2022/09/25 03:41:42;;;;;;;5.50;2.90;;;8.40;99.90;;;;;;5065895;23;20182;-71
2022/09/25 03:43:42;;;;;;;3.00;2.70;;;8.40;99.90;;;;;;5066697;23;20597;-70
2022/09/25 03:45:43;;;;;;;2.97;2.50;;;8.40;99.90;;;;;;5066310;23;20457;-70
2022/09/25 03:47:43;;;;;;;3.47;3.00;;;8.30;99.90;;;;;;5040468;23;20172;-71
2022/09/25 03:49:44;;;;;;;5.87;3.13;;;8.20;99.90;;;;;;5066317;23;20506;-71
2022/09/25 03:51:44;;;;;;;5.83;3.27;;;8.20;99.90;;;;;;5039779;23;20637;-70
2022/09/25 03:53:46;;;;;;;4.63;3.30;;;8.30;99.90;;;;;;5066547;23;20172;-70
2022/09/25 03:55:47;;;;;;;4.50;2.80;;;8.30;99.90;;;;;;5040272;23;20261;-70
2022/09/25 03:57:48;;;;;;;4.77;2.93;;;8.30;99.90;;;;;;5066432;23;20534;-73
2022/09/25 03:59:48;;;;;;;4.03;2.80;;;8.30;99.90;;;;;;5040387;23;20411;-70
2022/09/25 04:01:49;;;;;;;3.93;2.90;;;8.30;99.90;;;;;;5065083;23;20180;-70
2022/09/25 04:03:50;;;;;;;5.73;3.10;;;8.40;99.90;;;;;;5067299;23;20159;-70
2022/09/25 04:05:50;;;;;;;3.27;2.77;;;8.40;99.90;;;;;;5068168;23;20240;-70
2022/09/25 04:07:51;;;;;;;3.87;2.73;;;8.40;99.90;;;;;;5068215;23;20170;-70
2022/09/25 04:09:51;;;;;;;3.67;2.90;;;8.30;99.90;;;;;;5068014;23;20524;-70
2022/09/25 04:11:54;;;;;;;4.47;2.87;;;8.20;99.90;;;;;;5067450;23;20188;-70
2022/09/25 04:13:55;;;;;;;6.47;3.00;;;8.10;99.90;;;;;;5068235;23;20173;-70
2022/09/25 04:15:57;;;;;;;3.90;3.17;;;8.20;99.90;;;;;;5042051;23;20166;-71
2022/09/25 04:17:58;;;;;;;9.87;3.60;;;8.20;99.90;;;;;;5068125;23;20196;-70
2022/09/25 04:19:58;;;;;;;4.13;3.33;;;8.20;99.90;;;;;;5041460;23;20197;-70
2022/09/25 04:21:59;;;;;;;5.53;3.63;;;8.20;99.90;;;;;;5066599;23;20180;-70
2022/09/25 04:26:19;;;;;;;4.20;3.63;;;8.30;99.90;;;;;;5045366;23;20235;-70
2022/09/25 04:28:21;;;;;;;4.70;3.63;;;8.40;99.90;;;;;;5041184;23;20170;-70
2022/09/25 04:30:22;;;;;;;6.03;3.40;;;8.50;99.90;;;;;;5040491;23;20168;-70
2022/09/25 04:34:41;;;;;;;8.53;3.70;;;8.70;99.90;;;;;;5066918;23;20161;-70
2022/09/25 04:36:43;;;;;;;5.97;3.97;;;8.60;99.90;;;;;;5066701;23;20158;-70
2022/09/25 04:38:43;;;;;;;5.57;4.20;;;8.60;99.90;;;;;;5066887;23;20580;-71
2022/09/25 04:40:44;;;;;;;5.60;3.80;;;8.70;99.90;;;;;;5066296;23;20213;-70
2022/09/25 04:42:45;;;;;;;5.17;4.07;;;8.80;99.90;;;;;;5067118;23;20724;-72
2022/09/25 04:44:45;;;;;;;4.63;3.57;;;8.70;99.90;;;;;;5066995;23;20165;-71
2022/09/25 04:46:46;;;;;;;4.33;3.60;;;8.80;99.90;;;;;;5067044;23;20166;-70
2022/09/25 04:48:46;;;;;;;4.43;3.20;;;8.80;99.90;;;;;;5067006;23;20554;-71
2022/09/25 04:50:49;;;;;;;4.63;3.53;;;8.90;99.90;;;;;;5066290;23;20163;-71
2022/09/25 04:52:51;;;;;;;7.07;3.30;;;9.00;99.90;;;;;;5067419;23;20182;-70
2022/09/25 04:54:52;;;;;;;4.63;3.57;;;9.20;99.90;;;;;;5067255;23;20173;-71
2022/09/25 04:56:53;;;;;;;4.50;3.57;;;9.10;99.90;;;;;;5067248;23;20163;-71
2022/09/25 04:58:53;;;;;;;4.73;3.57;;;9.00;99.90;;;;;;5067239;23;20317;-71
2022/09/25 05:00:54;;;;;;;7.40;4.00;;;9.00;99.90;;;;;;5066139;23;20550;-70
2022/09/25 05:02:54;;;;;;;5.87;3.80;;;9.10;99.90;;;;;;5066967;23;20204;-71
2022/09/25 05:04:55;;;;;;;4.03;3.47;;;9.20;99.90;;;;;;5066805;23;20283;-71
2022/09/25 05:06:55;;;;;;;3.87;3.07;;;9.10;99.90;;;;;;5067199;23;20154;-71
2022/09/25 05:08:56;;;;;;;3.87;3.30;;;9.20;99.90;;;;;;5067037;23;20221;-70
2022/09/25 05:10:57;;;;;;;3.50;2.83;;;9.20;99.90;;;;;;5066555;23;20158;-70
2022/09/25 05:12:59;;;;;;;4.77;4.07;;;9.10;99.90;;;;;;5066946;23;20186;-72
2022/09/25 05:15:01;;;;;;;4.40;3.50;;;8.90;99.90;;;;;;5040603;23;20171;-70
2022/09/25 05:17:02;;;;;;;4.67;3.07;;;8.90;99.90;;;;;;5066843;23;20173;-72
2022/09/25 05:19:02;;;;;;;3.40;3.00;;;8.90;99.90;;;;;;5066973;23;20186;-71
2022/09/25 05:21:03;;;;;;;3.83;3.03;;;9.00;99.90;;;;;;5066032;23;20197;-70
2022/09/25 05:23:04;;;;;;;4.63;3.00;;;8.90;99.90;;;;;;5066718;23;20186;-71
2022/09/25 05:25:05;;;;;;;4.43;3.17;;;9.00;99.90;;;;;;5040837;23;20256;-71
2022/09/25 05:27:06;;;;;;;3.37;2.57;;;9.10;99.90;;;;;;5066828;23;20254;-71
2022/09/25 05:29:07;;;;;;;3.00;2.67;;;9.10;99.90;;;;;;5066795;23;20161;-70
2022/09/25 05:31:08;;;;;;;4.13;3.50;;;9.10;99.90;;;;;;5066259;23;20622;-70
2022/09/25 05:33:09;;;;;;;4.93;3.90;;;9.10;99.90;;;;;;5066596;23;20201;-70
2022/09/25 05:35:10;;;;;;;4.87;4.33;;;9.10;99.90;;;;;;5066837;23;20309;-71
2022/09/25 05:37:11;;;;;;;4.20;3.43;;;9.10;99.90;;;;;;5066851;23;20186;-71
2022/09/25 05:39:11;;;;;;;5.13;3.90;;;9.10;99.90;;;;;;5066836;23;20169;-71
2022/09/25 05:41:12;;;;;;;6.10;3.80;;;9.10;99.90;;;;;;5066200;23;20697;-72
2022/09/25 05:43:13;;;;;;;5.33;4.10;;;9.10;99.90;;;;;;5066886;23;20189;-71
2022/09/25 05:45:14;;;;;;;7.27;6.10;;;9.10;99.90;;;;;;5066822;23;20162;-71
2022/09/25 05:47:15;;;;;;;9.03;6.10;;;9.20;99.90;;;;;;5066780;23;20166;-71
2022/09/25 05:49:15;;;;;;;6.50;4.60;;;9.10;99.90;;;;;;5066674;23;20169;-71
2022/09/25 05:51:16;;;;;;;5.87;4.10;;;9.10;99.90;;;;;;5066003;23;20166;-71
2022/09/25 05:53:16;;;;;;;6.73;4.53;;;9.30;99.90;;;;;;5066883;23;20191;-72
2022/09/25 05:55:17;;;;;;;5.83;4.57;;;9.30;99.90;;;;;;5066602;23;20162;-71
2022/09/25 05:57:17;;;;;;;5.27;4.20;;;9.30;99.90;;;;;;5064893;23;20253;-71
2022/09/25 05:59:18;;;;;;;6.07;4.60;;;9.20;99.90;;;;;;5066605;23;20165;-71
2022/09/25 06:01:19;;;;;;;5.53;4.37;;;9.30;99.90;;;;;;5065681;23;20185;-72
2022/09/25 06:03:20;;;;;;;6.40;3.97;;;9.30;99.90;;;;;;5066846;23;20165;-71
2022/09/25 06:05:20;;;;;;;5.60;4.00;;;9.30;99.90;;;;;;5066564;23;20170;-71
2022/09/25 06:07:21;;;;;;;5.07;3.60;;;9.40;99.90;;;;;;5066544;23;20188;-73
2022/09/25 06:09:21;;;;;;;4.33;3.87;;;9.60;99.90;;;;;;5066442;23;20499;-71
2022/09/25 06:11:22;;;;;;;7.80;4.20;;;9.50;99.90;;;;;;5065891;23;20245;-71
2022/09/25 06:13:24;;;;;;;6.40;4.73;;;9.50;99.90;;;;;;5067096;23;20165;-70
2022/09/25 06:15:34;;;;;;;7.63;5.40;;;9.50;99.90;;;;;;5066655;23;20154;-70
2022/09/25 06:17:35;;;;;;;14.70;10.03;;;9.30;99.90;;;;;;5041276;23;20178;-72
2022/09/25 06:19:36;;;;;;;8.93;6.87;;;9.40;99.90;;;;;;5066719;23;20155;-71
2022/09/25 06:21:36;;;;;;;8.23;6.03;;;9.40;99.90;;;;;;5066576;23;20293;-71
2022/09/25 06:23:37;;;;;;;8.03;6.07;;;9.50;99.90;;;;;;5067079;23;20552;-73
2022/09/25 06:25:37;;;;;;;7.37;5.77;;;9.60;99.90;;;;;;5066918;23;20161;-71
2022/09/25 06:27:38;;;;;;;7.10;5.73;;;9.70;99.90;;;;;;5066994;23;20167;-71
2022/09/25 06:29:38;;;;;;;7.20;4.53;;;9.80;99.90;;;;;;5066539;23;20158;-71
2022/09/25 06:31:39;;;;;;;6.37;4.27;;;9.90;99.90;;;;;;5065653;23;20185;-71
2022/09/25 06:33:39;;;;;;;6.53;4.60;;;10.00;99.90;;;;;;5066605;23;20174;-72
2022/09/25 06:35:45;;;;;;;5.97;4.87;;;10.10;99.90;;;;;;5066508;23;20166;-71
2022/09/25 06:37:46;;;;;;;5.00;4.43;;;10.20;99.90;;;;;;5040586;23;20194;-71
2022/09/25 06:39:46;;;;;;;5.47;4.50;;;10.30;99.90;;;;;;5066367;23;20245;-71
2022/09/25 06:41:47;;;;;;;4.60;4.03;;;10.50;99.90;;;;;;5065877;23;20182;-72
2022/09/25 06:43:51;;;;;;;7.97;5.50;;;10.50;99.90;;;;;;5066683;23;20165;-73
2022/09/25 06:45:51;;;;;;;7.50;5.90;;;10.40;99.90;;;;;;5066572;23;20181;-73
2022/09/25 06:47:56;;;;;;;7.17;6.20;;;10.40;99.90;;;;;;5066365;23;20644;-72
2022/09/25 06:49:57;;;;;;;9.23;7.90;;;10.60;99.90;;;;;;5066537;23;20186;-71
2022/09/25 06:51:57;;;;;;;8.03;7.10;;;10.60;99.90;;;;;;5065721;23;20194;-71
2022/09/25 06:53:58;;;;;;;8.27;5.63;;;10.70;99.90;;;;;;5066822;23;20646;-71
2022/09/25 06:55:58;;;;;;;6.53;3.83;;;10.50;99.90;;;;;;5041176;23;20245;-72
2022/09/25 06:57:59;;;;;;;5.43;3.83;;;10.70;99.90;;;;;;5066483;23;20212;-71
2022/09/25 07:00:00;;;;;;;5.20;4.07;;;10.80;99.90;;;;;;5066679;23;20159;-73
2022/09/25 07:03:43;;;;;;;6.23;4.37;;;10.90;99.90;;;;;;5066058;23;20261;-70
2022/09/25 07:04:21;;;;;;;5.47;3.90;;;11.00;99.90;;;;;;5066250;23;20291;-72
2022/09/25 07:06:25;;;;;;;8.43;3.90;;;11.00;99.90;;;;;;5066360;23;20611;-71
2022/09/25 07:08:26;;;;;;;6.20;4.53;;;11.10;99.90;;;;;;5066242;23;20167;-72
2022/09/25 07:10:27;;;;;;;5.40;4.10;;;11.10;99.90;;;;;;5065616;23;20158;-72
2022/09/25 07:12:27;;;;;;;6.00;3.73;;;11.20;99.90;;;;;;5065850;23;20256;-72
2022/09/25 07:14:28;;;;;;;5.07;4.07;;;11.30;99.90;;;;;;5065946;23;20170;-72
2022/09/25 07:16:29;;;;;;;6.43;4.43;;;11.30;99.90;;;;;;5066019;23;20166;-73
2022/09/25 07:18:30;;;;;;;6.97;4.50;;;11.30;99.90;;;;;;5065874;23;20186;-71
2022/09/25 07:20:31;;;;;;;5.47;4.07;;;11.30;99.90;;;;;;5065108;23;20229;-72
2022/09/25 07:22:31;;;;;;;7.03;4.60;;;11.30;99.90;;;;;;5065813;23;20229;-72
2022/09/25 07:24:32;;;;;;;7.50;4.70;;;11.40;99.90;;;;;;5065775;23;20165;-72
2022/09/25 07:26:33;;;;;;;6.87;4.37;;;11.30;99.90;;;;;;5065903;23;20159;-73
2022/09/25 07:28:34;;;;;;;7.67;4.20;;;11.50;99.90;;;;;;5040093;23;20175;-72
2022/09/25 07:30:35;;;;;;;7.67;4.03;;;11.60;99.90;;;;;;5065101;23;20547;-70
2022/09/25 07:32:36;;;;;;;6.50;4.43;;;11.70;99.90;;;;;;5065784;23;20178;-69
2022/09/25 07:34:36;;;;;;;6.27;4.83;;;11.60;99.90;;;;;;5065761;23;20147;-69
2022/09/25 07:36:38;;;;;;;7.47;4.93;;;11.60;99.90;;;;;;5065915;23;20162;-71
2022/09/25 07:38:38;;;;;;;7.83;4.13;;;11.90;99.90;;;;;;5066525;23;20265;-71
2022/09/25 07:40:39;;;;;;;6.60;4.50;;;11.80;99.90;;;;;;5066702;23;20164;-71
2022/09/25 07:42:40;;;;;;;6.03;3.87;;;12.00;99.90;;;;;;5067638;23;20182;-70
2022/09/25 07:44:41;;;;;;;7.20;4.20;;;12.20;99.90;;;;;;5067767;23;20158;-71
2022/09/25 07:46:43;;;;;;;6.30;4.07;;;12.20;99.90;;;;;;5067475;23;20225;-70
2022/09/25 07:48:43;;;;;;;4.30;3.53;;;12.60;99.90;;;;;;5041609;23;20166;-71
2022/09/25 07:50:44;;;;;;;5.73;5.13;;;12.70;99.90;;;;;;5066811;23;20683;-71
2022/09/25 07:52:44;;;;;;;5.37;3.93;;;12.50;99.90;;;;;;5067958;23;21025;-71
2022/09/25 07:54:45;;;;;;;5.53;3.70;;;12.30;99.90;;;;;;5067551;23;20170;-71
2022/09/25 07:56:45;;;;;;;5.80;4.37;;;12.30;99.90;;;;;;5067490;23;20229;-70
2022/09/25 07:58:47;;;;;;;5.73;4.30;;;12.30;99.90;;;;;;5067443;23;20658;-70
2022/09/25 08:00:47;;;;;;;4.40;3.60;;;12.20;99.90;;;;;;5066874;23;20154;-71
2022/09/25 08:02:56;;;;;;;4.57;3.50;;;12.30;99.90;;;;;;5067632;23;20283;-70
2022/09/25 08:04:56;;;;;;;4.83;3.30;;;12.40;99.90;;;;;;5067097;23;20543;-70
2022/09/25 08:06:58;;;;;;;5.63;3.43;;;12.60;99.90;;;;;;5066935;23;20170;-70
2022/09/25 08:08:59;;;;;;;4.23;3.40;;;12.70;99.90;;;;;;5067483;23;20163;-70
2022/09/25 08:11:07;;;;;;;4.27;3.37;;;12.70;99.30;;;;;;5066446;23;20218;-70
2022/09/25 08:13:08;;;;;;;6.27;3.40;;;13.00;99.30;;;;;;5067031;23;20184;-71
2022/09/25 08:15:09;;;;;;;5.07;3.43;;;13.50;96.90;;;;;;5067119;23;20159;-71
2022/09/25 08:17:10;;;;;;;5.50;3.87;;;13.40;96.20;;;;;;5067239;23;20172;-70
2022/09/25 08:19:11;;;;;;;3.60;3.30;;;13.30;95.20;;;;;;5066890;23;20210;-70
2022/09/25 08:21:13;;;;;;;5.20;3.07;;;13.30;96.70;;;;;;5040537;23;20620;-71
2022/09/25 08:23:13;;;;;;;3.50;3.07;;;13.20;95.80;;;;;;5041300;23;20299;-71
2022/09/25 08:25:14;;;;;;;3.27;2.90;;;13.30;96.20;;;;;;5066835;23;20158;-71
2022/09/25 08:27:15;;;;;;;3.10;2.80;;;13.40;96.40;;;;;;5066984;23;20165;-71
2022/09/25 08:29:16;;;;;;;5.57;2.80;;;13.50;95.50;;;;;;5066999;23;20146;-69
2022/09/25 08:31:17;;;;;;;3.43;2.77;;;13.70;95.10;;;;;;5066329;23;20162;-68
2022/09/25 08:33:17;;;;;;;3.00;2.70;;;13.80;94.70;;;;;;5067336;23;20729;-68
2022/09/25 08:35:18;;;;;;;3.40;2.60;;;13.80;94.20;;;;;;5067314;23;20170;-72
2022/09/25 08:37:19;;;;;;;3.43;2.60;;;13.70;94.10;;;;;;5065141;23;20608;-72
2022/09/25 08:39:20;;;;;;;3.30;2.60;;;13.80;94.50;;;;;;5067222;23;20166;-72
2022/09/25 08:41:31;;;;;;;3.47;2.47;;;13.90;94.50;;;;;;5066286;23;20170;-71
2022/09/25 08:43:36;;;;;;;3.57;2.23;;;13.90;93.70;;;;;;5067114;23;20217;-72
2022/09/25 08:50:23;;;;;;;3.27;2.70;;;14.40;92.70;;;;;;5065866;23;20181;-73
2022/09/25 08:52:24;;;;;;;4.20;2.53;;;14.90;89.80;;;;;;5066845;23;20174;-72
2022/09/25 08:54:27;;;;;;;4.07;2.37;;;14.90;87.50;;;;;;5066780;23;20155;-73
2022/09/25 08:56:28;;;;;;;4.93;2.60;;;14.90;87.90;;;;;;5041024;23;20214;-73
2022/09/25 08:58:32;;;;;;;4.77;2.90;;;15.10;85.30;;;;;;5058620;23;20182;-72
2022/09/25 09:00:33;;;;;;;4.53;2.40;;;15.20;84.00;;;;;;5064965;23;20253;-72
2022/09/25 09:02:41;;;;;;;3.10;2.33;;;15.80;79.70;;;;;;5065280;23;20178;-71
2022/09/25 09:04:50;;;;;;;3.17;2.30;;;15.70;77.40;;;;;;5066337;23;20201;-72
2022/09/25 09:06:57;;;;;;;2.80;1.97;;;15.30;81.00;;;;;;5040940;23;20206;-71
2022/09/25 09:09:28;;;;;;;4.23;2.37;;;15.30;79.30;;;;;;5040830;23;20178;-70
2022/09/25 09:11:40;;;;;;;2.93;2.50;;;15.40;77.00;;;;;;5039967;23;20202;-70
2022/09/25 09:14:01;;;;;;;2.00;1.80;;;15.20;78.30;;;;;;5066458;23;20607;-69
2022/09/25 09:16:16;;;;;;;3.70;2.30;;;15.10;81.80;;;;;;5066562;23;20181;-69
2022/09/25 09:18:26;;;;;;;2.27;1.97;;;14.90;83.30;;;;;;5066135;23;20182;-71
2022/09/25 09:20:39;;;;;;;3.60;2.27;;;15.20;82.90;;;;;;5065993;23;20182;-71
2022/09/25 09:22:49;;;;;;;3.47;2.50;;;15.90;77.60;;;;;;5067010;23;20727;-70
2022/09/25 09:25:25;;;;;;;3.73;2.63;;;16.30;74.60;;;;;;5067001;23;20173;-69
2022/09/25 09:27:59;;;;;;;2.60;2.40;;;16.60;73.00;;;;;;5040877;23;20150;-71
2022/09/25 09:30:17;;;;;;;5.53;2.30;;;16.50;70.50;;;;;;5040899;23;20600;-71
2022/09/25 09:32:41;;;;;;;2.80;2.10;;;16.70;72.20;;;;;;5040946;23;20310;-72
2022/09/25 09:35:23;;;;;;;5.47;2.17;;;17.20;69.90;;;;;;5066655;23;20170;-71
2022/09/25 09:38:04;;;;;;;3.70;2.30;;;17.20;66.60;;;;;;5004116;23;20245;-72
2022/09/25 09:40:17;;;;;;;3.37;2.27;;;17.40;65.30;;;;;;5066069;23;20162;-72
2022/09/25 09:42:31;;;;;;;2.30;2.10;;;17.30;62.30;;;;;;5067066;23;20599;-72
2022/09/25 09:45:00;;;;;;;3.37;2.23;;;17.10;65.60;;;;;;5066656;23;20147;-71
2022/09/25 09:47:43;;;;;;;5.27;2.33;;;16.90;68.10;;;;;;5066163;23;20173;-71
2022/09/25 09:50:22;;;;;;;2.73;1.90;;;16.50;67.50;;;;;;5066060;23;20497;-72
2022/09/25 09:52:30;;;;;;;2.80;2.23;;;16.30;69.00;;;;;;5022202;23;20545;-70
2022/09/25 09:54:52;;;;;;;2.73;2.30;;;16.40;70.00;;;;;;5040196;23;20154;-71
2022/09/25 09:56:55;;;;;;;3.20;2.37;;;16.20;70.90;;;;;;5066054;23;20153;-71
2022/09/25 09:59:08;;;;;;;3.50;2.20;;;16.40;69.10;;;;;;5039961;23;20191;-73
2022/09/25 10:01:09;;;;;;;3.20;2.60;;;16.00;71.00;;;;;;5039124;23;20162;-74
2022/09/25 10:03:27;;;;;;;5.10;2.83;;;16.10;69.10;;;;;;5040153;23;20179;-70
2022/09/25 10:05:41;;;;;;;3.33;2.63;;;15.90;69.90;;;;;;5066195;23;20174;-72
2022/09/25 10:07:42;;;;;;;3.67;2.50;;;15.60;70.70;;;;;;5041214;23;20223;-73
2022/09/25 10:09:43;;;;;;;4.30;2.67;;;15.70;71.70;;;;;;5039984;23;20506;-68
2022/09/25 10:11:50;;;;;;;4.37;3.10;;;15.80;70.80;;;;;;5063516;23;20264;-71
2022/09/25 10:13:52;;;;;;;3.00;2.57;;;15.70;71.80;;;;;;5065833;23;20190;-71
2022/09/25 10:16:10;;;;;;;2.83;2.33;;;15.90;71.30;;;;;;5066096;23;20587;-72
2022/09/25 10:18:12;;;;;;;2.50;2.30;;;15.60;71.50;;;;;;5041083;23;20175;-72
2022/09/25 10:20:23;;;;;;;2.53;2.07;;;15.80;72.70;;;;;;5065296;23;20238;-70
2022/09/25 10:22:35;;;;;;;3.00;2.70;;;15.70;71.30;;;;;;5040006;23;20266;-71
2022/09/25 10:25:04;;;;;;;3.00;2.50;;;15.40;73.10;;;;;;5065875;23;20154;-71
2022/09/25 10:27:40;;;;;;;3.90;2.50;;;15.30;72.30;;;;;;5040884;23;20676;-72
2022/09/25 10:29:40;;;;;;;3.43;2.70;;;15.20;73.40;;;;;;5065854;23;20624;-72
2022/09/25 10:31:41;;;;;;;4.57;2.90;;;15.30;73.40;;;;;;5064679;23;20193;-71
2022/09/25 10:33:42;;;;;;;4.57;2.70;;;15.60;71.70;;;;;;5065486;23;20257;-69
2022/09/25 10:35:44;;;;;;;3.37;2.70;;;15.80;70.70;;;;;;5039734;23;20249;-70
2022/09/25 10:37:51;;;;;;;2.93;2.63;;;15.50;72.10;;;;;;5065353;23;20190;-70
2022/09/25 10:40:21;;;;;;;2.90;2.60;;;15.60;73.30;;;;;;5039691;23;20166;-71
2022/09/25 10:42:39;;;;;;;4.10;2.90;;;15.50;73.90;;;;;;5039646;23;20242;-71
2022/09/25 10:44:40;;;;;;;5.00;2.90;;;15.50;73.20;;;;;;5040067;23;20147;-71
2022/09/25 10:52:04;;;;;;;6.10;3.10;;;15.80;70.40;;;;;;5065304;23;20201;-74
2022/09/25 10:54:14;;;;;;;4.70;3.17;;;15.40;72.30;;;;;;5039553;23;20163;-73
2022/09/25 10:56:20;;;;;;;5.60;3.20;;;15.90;72.30;;;;;;5040064;23;20163;-72
2022/09/25 10:58:27;;;;;;;6.50;4.43;;;15.70;71.80;;;;;;5039769;23;20205;-70
2022/09/25 11:00:29;;;;;;;4.63;3.87;;;15.40;73.50;;;;;;5064726;23;20221;-69
2022/09/25 11:02:37;;;;;;;5.60;3.73;;;15.10;76.10;;;;;;5065405;23;20186;-72
2022/09/25 11:04:41;;;;;;;6.83;4.13;;;15.10;76.60;;;;;;5066550;23;20419;-73
2022/09/25 11:06:45;;;;;;;6.30;3.97;;;14.70;78.00;;;;;;5065879;23;20166;-71
2022/09/25 11:09:00;;;;;;;6.67;4.47;;;14.60;80.10;;;;;;5067363;23;20170;-73
2022/09/25 11:11:02;;;;;;;6.47;4.97;;;14.00;83.50;;;;;;5065363;23;20242;-76
2022/09/25 11:13:07;;;;;;;5.47;3.97;;;14.00;84.00;;;;;;5066383;23;20257;-76
2022/09/25 11:15:17;;;;;;;8.10;4.67;;;14.00;84.30;;;;;;5040623;23;20605;-73
2022/09/25 11:17:37;;;;;;;5.83;4.60;;;13.60;85.40;;;;;;5065732;23;20154;-75